createdAt,value
2023-05-05T00:01:50.919Z,9.78
2023-05-05T00:04:54.277Z,10.45
2023-05-05T00:07:57.604Z,10.93
2023-05-05T00:11:05.896Z,11.46
2023-05-05T00:14:09.318Z,11.28
2023-05-05T00:17:12.776Z,11.43
2023-05-05T00:20:16.194Z,11.62
2023-05-05T00:23:20.682Z,11.77
2023-05-05T00:26:24.053Z,11.60
2023-05-05T00:29:33.080Z,11.40
2023-05-05T00:33:00.553Z,11.14
2023-05-05T00:36:29.649Z,11.53
2023-05-05T00:39:45.969Z,11.76
2023-05-05T00:42:55.804Z,12.25
2023-05-05T00:46:28.936Z,12.81
2023-05-05T00:49:59.656Z,13.07
2023-05-05T00:54:03.392Z,12.94
2023-05-05T00:57:07.078Z,12.47
2023-05-05T01:00:11.040Z,12.06
2023-05-05T01:03:16.283Z,11.77
2023-05-05T01:07:15.058Z,11.83
2023-05-05T01:10:49.843Z,11.87
2023-05-05T01:14:29.232Z,11.57
2023-05-05T01:18:19.026Z,11.43
2023-05-05T01:21:42.265Z,11.38
2023-05-05T01:25:28.075Z,11.59
2023-05-05T01:28:54.581Z,11.88
2023-05-05T01:32:46.358Z,11.90
2023-05-05T01:36:00.603Z,12.11
2023-05-05T01:39:41.436Z,12.46
2023-05-05T01:42:46.233Z,12.53
2023-05-05T01:45:54.444Z,12.67
2023-05-05T01:49:27.173Z,12.63
2023-05-05T01:52:31.770Z,12.91
2023-05-05T01:55:37.373Z,12.98
2023-05-05T01:58:45.988Z,13.45
2023-05-05T02:01:51.652Z,13.74
2023-05-05T02:05:04.746Z,13.65
2023-05-05T02:08:13.651Z,13.83
2023-05-05T02:11:22.212Z,13.98
2023-05-05T02:14:51.938Z,14.05
2023-05-05T02:18:17.555Z,14.24
2023-05-05T02:25:09.157Z,13.97
2023-05-05T02:29:00.423Z,13.83
2023-05-05T02:32:30.902Z,14.15
2023-05-05T02:35:42.033Z,14.19
2023-05-05T02:39:48.837Z,14.40
2023-05-05T02:43:22.277Z,14.40
2023-05-05T02:46:39.654Z,13.93
2023-05-05T02:50:08.973Z,13.53
2023-05-05T02:53:29.271Z,13.47
2023-05-05T02:56:45.368Z,13.16
2023-05-05T03:01:13.477Z,13.15
2023-05-05T03:04:25.952Z,13.34
2023-05-05T03:07:57.466Z,13.40
2023-05-05T03:11:28.139Z,13.65
2023-05-05T03:14:37.465Z,13.56
2023-05-05T03:17:48.582Z,13.59
2023-05-05T03:20:55.868Z,13.73
2023-05-05T03:23:59.740Z,13.87
2023-05-05T03:27:06.364Z,13.97
2023-05-05T03:30:14.689Z,14.11
2023-05-05T03:33:27.265Z,14.39
2023-05-05T03:36:35.941Z,14.50
2023-05-05T03:39:42.320Z,14.80
2023-05-05T03:42:53.564Z,14.74
2023-05-05T03:45:57.367Z,14.81
2023-05-05T03:49:02.858Z,14.85
2023-05-05T03:52:09.316Z,15.01
2023-05-05T03:55:25.329Z,14.91
2023-05-05T03:58:34.454Z,14.90
2023-05-05T04:01:40.242Z,15.24
2023-05-05T04:04:44.686Z,15.60
2023-05-05T04:07:50.612Z,15.14
2023-05-05T04:11:19.107Z,15.53
2023-05-05T04:14:23.280Z,15.96
2023-05-05T04:17:27.417Z,16.19
2023-05-05T04:20:40.223Z,15.82
2023-05-05T04:23:46.918Z,15.34
2023-05-05T04:26:50.299Z,14.95
2023-05-05T04:29:58.440Z,14.67
2023-05-05T04:33:02.212Z,14.73
2023-05-05T04:36:09.731Z,15.05
2023-05-05T04:39:16.285Z,15.12
2023-05-05T04:42:26.589Z,15.19
2023-05-05T04:45:30.052Z,15.12
2023-05-05T04:48:35.237Z,15.14
2023-05-05T04:51:44.024Z,15.19
2023-05-05T04:54:52.678Z,15.59
2023-05-05T04:57:56.144Z,15.73
2023-05-05T05:01:00.456Z,15.65
2023-05-05T05:04:03.958Z,15.46
2023-05-05T05:07:07.466Z,15.29
2023-05-05T05:10:36.269Z,14.84
2023-05-05T05:13:39.763Z,14.74
2023-05-05T05:17:08.225Z,15.02
2023-05-05T05:20:12.250Z,15.11
2023-05-05T05:23:41.066Z,15.05
2023-05-05T05:26:44.706Z,14.95
2023-05-05T05:30:00.245Z,14.56
2023-05-05T05:33:04.530Z,14.49
2023-05-05T05:36:08.264Z,14.46
2023-05-05T05:39:12.280Z,14.38
2023-05-05T05:42:22.847Z,14.50
2023-05-05T05:45:27.128Z,14.73
2023-05-05T05:48:59.694Z,14.59
2023-05-05T05:52:03.488Z,14.72
2023-05-05T05:55:08.412Z,14.60
2023-05-05T05:58:17.146Z,14.56
2023-05-05T06:01:21.471Z,14.79
2023-05-05T06:08:04.746Z,15.65
2023-05-05T06:11:17.735Z,15.96
2023-05-05T06:14:41.016Z,15.67
2023-05-05T06:17:44.941Z,15.63
2023-05-05T06:20:51.566Z,15.53
2023-05-05T06:23:57.088Z,15.32
2023-05-05T06:27:00.686Z,15.55
2023-05-05T06:30:10.247Z,15.60
2023-05-05T06:33:18.114Z,15.70
2023-05-05T06:36:23.126Z,15.90
2023-05-05T06:39:26.571Z,15.86
2023-05-05T06:42:31.489Z,15.89
2023-05-05T06:45:35.468Z,15.98
2023-05-05T06:51:59.118Z,15.80
2023-05-05T06:55:05.502Z,15.98
2023-05-05T06:58:13.169Z,16.26
2023-05-05T07:01:41.509Z,16.48
2023-05-05T07:04:48.572Z,16.79
2023-05-05T07:07:56.727Z,17.19
2023-05-05T07:11:01.863Z,17.11
2023-05-05T07:17:25.334Z,16.77
2023-05-05T07:20:45.614Z,16.44
2023-05-05T07:24:06.465Z,16.55
2023-05-05T07:28:04.818Z,16.67
2023-05-05T07:31:54.403Z,16.60
2023-05-05T07:39:17.168Z,16.66
2023-05-05T07:42:21.795Z,16.63
2023-05-05T07:45:29.569Z,16.83
2023-05-05T07:48:33.075Z,16.48
2023-05-05T07:51:36.394Z,16.28
2023-05-05T07:54:39.784Z,15.98
2023-05-05T07:58:26.815Z,15.89
2023-05-05T08:01:44.634Z,15.74
2023-05-05T08:08:36.388Z,15.89
2023-05-05T08:12:32.167Z,16.11
2023-05-05T08:15:46.834Z,16.11
2023-05-05T08:18:53.526Z,16.33
2023-05-05T08:22:01.984Z,16.55
2023-05-05T08:25:06.084Z,16.51
2023-05-05T08:28:14.310Z,16.41
2023-05-05T08:31:23.969Z,16.11
2023-05-05T08:38:39.984Z,15.96
2023-05-05T08:41:44.087Z,15.59
2023-05-05T08:44:47.611Z,15.59
2023-05-05T08:47:58.698Z,15.65
2023-05-05T08:51:29.193Z,15.46
2023-05-05T08:54:35.957Z,15.49
2023-05-05T08:57:54.813Z,15.45
2023-05-05T09:01:02.154Z,15.39
2023-05-05T09:04:05.923Z,15.56
2023-05-05T09:07:10.171Z,15.66
2023-05-05T09:10:17.946Z,15.69
2023-05-05T09:13:21.384Z,15.56
2023-05-05T09:16:27.097Z,15.65
2023-05-05T09:19:31.036Z,15.67
2023-05-05T09:22:40.080Z,15.59
2023-05-05T09:25:46.714Z,15.46
2023-05-05T09:29:01.999Z,15.36
2023-05-05T10:02:56.727Z,15.04
2023-05-05T10:43:24.857Z,14.25
2023-05-05T10:46:29.512Z,14.25
2023-05-05T10:49:49.588Z,13.98
2023-05-05T11:51:49.133Z,11.83
2023-05-05T11:55:03.526Z,11.80
2023-05-05T11:58:32.726Z,11.73
2023-05-05T12:05:06.913Z,11.52
2023-05-05T12:08:11.096Z,11.46
2023-05-05T12:11:14.682Z,11.36
2023-05-05T12:14:21.765Z,11.32
2023-05-05T12:17:24.990Z,11.28
2023-05-05T12:20:35.729Z,11.19
2023-05-05T12:23:40.087Z,11.16
2023-05-05T12:27:19.057Z,11.12
2023-05-05T12:30:23.838Z,11.07
2023-05-05T12:33:27.652Z,11.00
2023-05-05T12:36:39.579Z,11.00
2023-05-05T12:39:43.089Z,10.97
2023-05-05T12:42:59.323Z,10.88
2023-05-05T12:46:44.380Z,10.81
2023-05-05T12:50:39.077Z,10.77
2023-05-05T12:57:23.720Z,10.57
2023-05-05T13:00:27.460Z,10.45
2023-05-05T13:03:34.008Z,10.32
2023-05-05T13:06:49.037Z,10.25
2023-05-05T13:09:52.816Z,10.22
2023-05-05T13:13:03.681Z,10.22
2023-05-05T13:16:13.253Z,10.22
2023-05-05T13:19:46.822Z,10.25
2023-05-05T13:22:55.538Z,10.21
2023-05-05T13:25:59.156Z,10.18
2023-05-05T13:29:05.995Z,10.16
2023-05-05T13:32:09.413Z,10.12
2023-05-05T13:35:28.023Z,10.12
2023-05-05T13:38:34.622Z,10.01
2023-05-05T13:41:37.984Z,9.97
2023-05-05T13:44:41.322Z,9.74
2023-05-05T13:47:45.855Z,9.57
2023-05-05T13:50:49.797Z,9.44
2023-05-05T13:53:53.366Z,9.28
2023-05-05T13:57:21.774Z,9.19
2023-05-05T14:00:25.374Z,9.11
2023-05-05T14:03:28.686Z,9.02
2023-05-05T14:07:33.900Z,8.94
2023-05-05T14:10:37.784Z,8.87
2023-05-05T14:13:41.084Z,8.84
2023-05-05T14:16:44.534Z,8.81
2023-05-05T14:20:13.005Z,8.83
2023-05-05T14:23:16.277Z,8.81
2023-05-05T14:26:19.629Z,8.78
2023-05-05T14:29:29.390Z,8.74
2023-05-05T14:32:32.819Z,8.67
2023-05-05T14:35:36.377Z,8.63
2023-05-05T14:39:24.926Z,8.60
2023-05-05T14:42:23.906Z,8.43
2023-05-05T14:45:58.737Z,8.33
2023-05-05T14:49:12.700Z,8.26
2023-05-05T14:52:16.101Z,8.25
2023-05-05T14:55:19.473Z,8.24
2023-05-05T14:58:25.965Z,8.25
2023-05-05T15:01:29.372Z,8.16
2023-05-05T15:05:40.959Z,8.13
2023-05-05T15:09:09.787Z,8.06
2023-05-05T15:12:21.481Z,7.97
2023-05-05T15:15:25.013Z,7.91
2023-05-05T15:18:28.452Z,7.84
2023-05-05T15:21:33.303Z,7.83
2023-05-05T15:24:37.920Z,7.73
2023-05-05T15:27:48.738Z,7.64
2023-05-05T15:30:52.073Z,7.56
2023-05-05T15:33:55.514Z,7.47
2023-05-05T15:36:58.815Z,7.38
2023-05-05T15:40:12.974Z,7.30
2023-05-05T15:43:19.480Z,7.26
2023-05-05T15:46:26.917Z,7.19
2023-05-05T15:49:30.091Z,7.15
2023-05-05T15:52:57.513Z,7.11
2023-05-05T15:56:04.141Z,7.02
2023-05-05T15:59:07.801Z,7.00
2023-05-05T16:02:14.534Z,6.97
2023-05-05T16:05:17.799Z,7.02
2023-05-05T16:08:48.438Z,7.08
2023-05-05T16:11:55.299Z,7.11
2023-05-05T16:15:00.379Z,7.15
2023-05-05T16:18:42.885Z,7.19
2023-05-05T16:21:46.334Z,7.21
2023-05-05T16:25:05.774Z,7.15
2023-05-05T16:29:11.004Z,7.19
2023-05-05T16:32:17.479Z,7.18
2023-05-05T16:35:27.977Z,7.15
2023-05-05T16:39:00.259Z,7.14
2023-05-05T16:42:07.032Z,7.11
2023-05-05T16:45:13.506Z,7.09
2023-05-05T16:48:18.216Z,7.08
2023-05-05T16:51:21.620Z,7.04
2023-05-05T16:54:26.265Z,7.02
2023-05-05T16:57:30.586Z,6.95
2023-05-05T17:00:36.866Z,6.92
2023-05-05T17:03:40.274Z,6.88
2023-05-05T17:06:43.559Z,6.84
2023-05-05T17:09:50.780Z,6.79
2023-05-05T17:12:54.148Z,6.72
2023-05-05T17:16:22.262Z,6.73
2023-05-05T17:19:37.660Z,6.72
2023-05-05T17:23:09.218Z,6.76
2023-05-05T17:26:12.496Z,6.76
2023-05-05T17:29:41.998Z,6.73
2023-05-05T17:32:45.463Z,6.70
2023-05-05T17:35:49.394Z,6.67
2023-05-05T17:39:26.667Z,6.58
2023-05-05T17:42:35.426Z,6.46
2023-05-05T17:46:12.573Z,6.40
2023-05-05T17:49:19.146Z,6.43
2023-05-05T17:52:35.695Z,6.45
2023-05-05T18:03:34.539Z,6.56
2023-05-05T18:06:41.408Z,6.63
2023-05-05T18:09:44.768Z,6.58
2023-05-05T18:12:48.318Z,6.54
2023-05-05T18:15:51.665Z,6.57
2023-05-05T18:18:54.895Z,6.66
2023-05-05T18:21:58.148Z,6.63
2023-05-05T18:25:01.701Z,6.62
2023-05-05T18:28:23.664Z,6.58
2023-05-05T18:31:30.931Z,6.53
2023-05-05T18:34:37.071Z,6.47
2023-05-05T18:37:40.350Z,6.42
2023-05-05T18:40:43.656Z,6.38
2023-05-05T18:43:46.887Z,6.30
2023-05-05T18:46:50.178Z,6.26
2023-05-05T18:49:53.556Z,6.18
2023-05-05T18:52:56.849Z,6.04
2023-05-05T18:56:00.293Z,5.98
2023-05-05T18:59:03.623Z,5.91
2023-05-05T19:02:08.641Z,5.87
2023-05-05T19:05:12.287Z,5.77
2023-05-05T19:08:15.936Z,5.74
2023-05-05T19:11:19.297Z,5.66
2023-05-05T19:15:13.918Z,5.60
2023-05-05T19:18:38.249Z,5.55
2023-05-05T19:21:47.526Z,5.45
2023-05-05T19:24:50.930Z,5.39
2023-05-05T19:27:54.292Z,5.34
2023-05-05T19:30:57.581Z,5.29
2023-05-05T19:34:25.384Z,5.25
2023-05-05T19:37:40.120Z,5.19
2023-05-05T19:40:44.184Z,5.17
2023-05-05T19:44:10.411Z,5.12
2023-05-05T19:47:13.756Z,5.08
2023-05-05T19:50:17.161Z,5.02
2023-05-05T19:53:22.144Z,5.00
2023-05-05T19:56:25.521Z,4.92
2023-05-05T19:59:28.882Z,4.91
2023-05-05T20:02:34.789Z,4.84
2023-05-05T20:05:40.168Z,4.74
2023-05-05T20:08:46.513Z,4.69
2023-05-05T20:11:49.836Z,4.64
2023-05-05T20:14:53.672Z,4.52
2023-05-05T20:17:57.011Z,4.45
2023-05-05T20:21:00.539Z,4.32
2023-05-05T20:24:04.145Z,4.32
2023-05-05T20:27:08.006Z,4.32
2023-05-05T20:30:12.840Z,4.32
2023-05-05T20:33:16.174Z,4.36
2023-05-05T20:36:19.635Z,4.42
2023-05-05T20:39:22.908Z,4.45
2023-05-05T20:42:26.621Z,4.45
2023-05-05T20:45:32.281Z,4.46
2023-05-05T20:48:36.854Z,4.46
2023-05-05T20:51:41.479Z,4.48
2023-05-05T20:54:44.789Z,4.48
2023-05-05T20:57:48.052Z,4.48
2023-05-05T21:00:51.665Z,4.48
2023-05-05T21:03:54.974Z,4.49
2023-05-05T21:06:58.273Z,4.50
2023-05-05T21:10:05.765Z,4.52
2023-05-05T21:13:09.072Z,4.57
2023-05-05T21:16:12.896Z,4.60
2023-05-05T21:19:16.996Z,4.66
2023-05-05T21:22:21.216Z,4.67
2023-05-05T21:25:24.975Z,4.64
2023-05-05T21:28:28.298Z,4.70
2023-05-05T21:31:31.663Z,4.76
2023-05-05T21:34:35.264Z,4.84
2023-05-05T21:37:40.092Z,4.84
2023-05-05T21:40:43.459Z,4.77
2023-05-05T21:43:47.022Z,4.83
2023-05-05T21:46:50.297Z,4.84
2023-05-05T21:49:53.629Z,4.74
2023-05-05T21:52:57.454Z,4.73
2023-05-05T21:56:00.817Z,4.77
2023-05-05T21:59:06.047Z,4.81
2023-05-05T22:02:09.452Z,4.94
2023-05-05T22:05:40.896Z,5.02
2023-05-05T22:08:44.552Z,5.15
2023-05-05T22:11:47.830Z,5.31
2023-05-05T22:14:51.172Z,5.36
2023-05-05T22:17:54.520Z,5.43
2023-05-05T22:20:58.540Z,5.52
2023-05-05T22:24:01.878Z,6.17
2023-05-05T22:27:05.205Z,8.53
2023-05-05T22:30:09.532Z,10.59
2023-05-05T22:33:12.995Z,12.17
2023-05-05T22:36:20.453Z,13.18
2023-05-05T22:39:24.419Z,14.45
2023-05-05T22:42:27.837Z,15.96
2023-05-05T22:45:52.634Z,17.24
2023-05-05T22:49:00.599Z,17.21
2023-05-05T22:52:06.826Z,17.42
2023-05-05T22:55:13.410Z,18.12
2023-05-05T22:58:19.652Z,19.06
2023-05-05T23:01:47.821Z,20.10
2023-05-05T23:04:51.749Z,21.20
2023-05-05T23:07:55.086Z,21.42
2023-05-05T23:10:58.404Z,21.62
2023-05-05T23:14:04.586Z,21.80
2023-05-05T23:17:08.073Z,21.85
2023-05-05T23:20:13.721Z,22.21
2023-05-05T23:23:24.737Z,21.78
2023-05-05T23:26:31.353Z,21.45
2023-05-05T23:29:37.487Z,20.91
2023-05-05T23:32:40.911Z,20.73
2023-05-05T23:35:46.170Z,20.68
2023-05-05T23:38:49.387Z,21.32
2023-05-05T23:41:52.797Z,22.04
2023-05-05T23:44:56.430Z,22.43
2023-05-05T23:48:03.491Z,23.10
2023-05-05T23:51:06.910Z,22.63
2023-05-05T23:54:10.158Z,21.93
2023-05-05T23:57:13.426Z,22.61
